Airfield :
LOGIN :

Register | Disclaimer

   EN    FR    IT 

 










Legend :    VFR   Marginal VFR   IFR   Intensive IFR   Very Intensive IFR
Visi :
Ceiling :
>= 8 km
>= 3000ft
5 to 8 km
1000 to 3000 ft
1500m to 5 km
500 to 1000 ft
800 to 1500m
200 to 500 ft
< 800m
< 200 ft
Symbols :   Thunderstorms  Fog  Heavy snow  Heavy precipitations  Wind > 20 kt
SIGMETs :     Misc.  Thunderstorms  Icing  Turbulence  Mountain Waves  Volcanic Ashes






- Airport Elevation : 594 ft


EDBC - Cochstedt

CURRENT METAR :
  • 181750Z AUTO 16011KT 9999 // FEW033/// OVC089/// 18/16 Q1011

EXPIRED METARs :
  • 181720Z 15011KT CAVOK 19/17 Q1011
  • 181650Z 15009KT CAVOK 20/17 Q1012
  • 181620Z 14005KT 110V170 CAVOK 20/18 Q1012
  • 181550Z 14009KT CAVOK 20/17 Q1012
  • 181520Z 09006KT 9999 SCT040 19/17 Q1012 RETSRA
  • 181450Z 16005KT 7000 RA OVC050 22/17 Q1014
  • 181420Z 14008KT 9999 VCSH SCT040 24/14 Q1013
  • 181350Z 14005KT 080V220 9999 FEW044 25/14 Q1013
  • 181320Z 14008KT 110V200 9999 SCT044 25/14 Q1014

TAF COR TAF EDBC
Valid from the 18 at 15:00 until the 19 at 00:00 UTC


181400Z 1815/1824 13004KT CAVOK
TEMPO 1815/1818 SHRA SCT020 BKN060CB
PROB30
TEMPO 1815/1817 25020G35KT 3500 TSGR
BECMG 1818/1820 34005KT
BECMG 1821/1823 27004KT 3500 BR
PROB40
TEMPO 1822/1824 0700 FG BKN001



MET'MAP, your aeronautical weather chart ! - Copyright ORBIFLY December 2007 - Disclaimer

ORBIFLY MET'MAP TEAM :

Programming & Development : Alexandra Zaïnal
Original concept : Baudouin d'Aumeries
Technical & hardware support : Manuel Goepfert
Assistance : Marc-Olivier Méhu




SOURCES & CREDITS :

   NOAA